Time;durP1;ratioP1;P1;durP2;ratioP2;P2;SDS_P1;SDS_P2;PMS_P1;PMS_P2;Temp;Humidity;BMP_temperature;BMP_pressure;BME280_temperature;BME280_humidity;BME280_pressure;Samples;Min_cycle;Max_cycle;Signal;HPM_P1;HPM_P2
2023/06/19 00:01:04;;;;;;;8.03;7.43;;;21.40;99.90;;;;;;5086802;28;20201;-54
2023/06/19 00:03:31;;;;;;;8.83;8.33;;;21.40;99.90;;;;;;5090091;28;20224;-53
2023/06/19 00:05:58;;;;;;;8.00;7.40;;;21.40;99.90;;;;;;5091023;28;20212;-54
2023/06/19 00:08:25;;;;;;;8.37;7.87;;;21.40;99.90;;;;;;5090206;28;20449;-53
2023/06/19 00:10:53;;;;;;;8.30;7.80;;;21.40;99.90;;;;;;5091067;28;20243;-53
2023/06/19 00:13:21;;;;;;;8.97;8.23;;;21.30;99.90;;;;;;5091136;28;20196;-53
2023/06/19 00:15:48;;;;;;;8.60;8.00;;;21.20;99.90;;;;;;5091540;28;20722;-53
2023/06/19 00:18:16;;;;;;;7.37;6.97;;;21.10;99.90;;;;;;5088044;28;20232;-53
2023/06/19 00:20:45;;;;;;;9.73;9.03;;;21.00;99.90;;;;;;5090124;28;20207;-53
2023/06/19 00:23:14;;;;;;;9.63;8.73;;;20.90;99.90;;;;;;5087795;28;20662;-53
2023/06/19 00:25:41;;;;;;;10.10;9.30;;;20.80;99.90;;;;;;5090459;28;20831;-53
2023/06/19 00:28:11;;;;;;;9.03;8.47;;;20.80;99.90;;;;;;5088472;28;20220;-53
2023/06/19 00:30:38;;;;;;;8.90;8.33;;;20.70;99.90;;;;;;5088891;28;20200;-53
2023/06/19 00:33:06;;;;;;;8.10;7.47;;;20.70;99.90;;;;;;5083168;28;20632;-53
2023/06/19 00:35:33;;;;;;;8.80;8.27;;;20.70;99.90;;;;;;5089050;28;20193;-53
2023/06/19 00:38:00;;;;;;;9.70;8.80;;;20.60;99.90;;;;;;5088209;28;20252;-53
2023/06/19 00:40:29;;;;;;;9.07;8.47;;;20.60;99.90;;;;;;5091249;28;20192;-53
2023/06/19 00:42:56;;;;;;;10.50;9.60;;;20.50;99.90;;;;;;5088927;28;20258;-53
2023/06/19 00:45:25;;;;;;;9.43;8.77;;;20.50;99.90;;;;;;5090061;28;20285;-53
2023/06/19 00:47:52;;;;;;;9.70;8.87;;;20.40;99.90;;;;;;5089158;28;20215;-53
2023/06/19 00:50:19;;;;;;;8.87;8.37;;;20.40;99.90;;;;;;5090528;28;20241;-53
2023/06/19 00:52:46;;;;;;;9.40;8.70;;;20.40;99.90;;;;;;5086147;28;20684;-53
2023/06/19 00:55:15;;;;;;;8.77;8.17;;;20.30;99.90;;;;;;5085843;28;20256;-53
2023/06/19 00:57:43;;;;;;;10.73;10.00;;;20.30;99.90;;;;;;5087760;28;20277;-53
2023/06/19 01:00:12;;;;;;;9.57;8.87;;;20.30;99.90;;;;;;5090494;28;20216;-53
2023/06/19 01:02:41;;;;;;;11.13;10.23;;;20.40;99.90;;;;;;5076541;28;20333;-53
2023/06/19 01:05:08;;;;;;;10.10;9.40;;;20.30;99.90;;;;;;5090169;28;20240;-53
2023/06/19 01:07:44;;;;;;;9.47;8.87;;;20.40;99.90;;;;;;5089636;28;20269;-53
2023/06/19 01:10:13;;;;;;;9.73;8.87;;;20.30;99.90;;;;;;5086618;28;20200;-53
2023/06/19 01:12:50;;;;;;;11.47;10.50;;;20.30;99.90;;;;;;5090932;28;20751;-53
2023/06/19 01:15:18;;;;;;;9.33;8.73;;;20.30;99.90;;;;;;5091288;28;20220;-53
2023/06/19 01:17:47;;;;;;;10.70;9.60;;;20.30;99.90;;;;;;5090031;28;20731;-53
2023/06/19 01:20:15;;;;;;;10.60;9.73;;;20.40;99.90;;;;;;5090850;28;20207;-53
2023/06/19 01:22:43;;;;;;;9.30;8.60;;;20.40;99.90;;;;;;5090120;28;20196;-53
2023/06/19 01:25:11;;;;;;;9.63;9.00;;;20.40;99.90;;;;;;5083034;28;20570;-53
2023/06/19 01:27:38;;;;;;;9.53;8.83;;;20.40;99.90;;;;;;5091044;28;20224;-53
2023/06/19 01:30:07;;;;;;;10.33;9.63;;;20.50;99.90;;;;;;5090882;28;20677;-53
2023/06/19 01:32:42;;;;;;;9.20;8.47;;;20.50;99.90;;;;;;5094522;28;20188;-53
2023/06/19 01:35:10;;;;;;;10.03;9.27;;;20.50;99.90;;;;;;5074489;28;20282;-53
2023/06/19 01:37:38;;;;;;;9.03;8.33;;;20.50;99.90;;;;;;5087909;28;20853;-53
2023/06/19 01:40:10;;;;;;;9.83;8.83;;;20.50;99.90;;;;;;5094346;28;20201;-53
2023/06/19 01:42:39;;;;;;;9.47;8.70;;;20.50;99.90;;;;;;5092862;28;20215;-53
2023/06/19 01:45:08;;;;;;;9.93;9.30;;;20.50;99.90;;;;;;5093762;28;20639;-53
2023/06/19 01:47:36;;;;;;;9.77;8.97;;;20.50;99.90;;;;;;5094243;28;20215;-53
2023/06/19 01:50:04;;;;;;;9.97;9.27;;;20.40;99.90;;;;;;5093562;28;20295;-53
2023/06/19 01:52:31;;;;;;;9.13;8.33;;;20.40;99.90;;;;;;5093922;28;20196;-53
2023/06/19 01:54:58;;;;;;;9.40;8.70;;;20.40;99.90;;;;;;5091741;28;20567;-53
2023/06/19 01:57:26;;;;;;;9.63;8.73;;;20.40;99.90;;;;;;5094280;28;20192;-53
2023/06/19 01:59:53;;;;;;;8.57;7.97;;;20.30;99.90;;;;;;5094088;28;20577;-53
2023/06/19 02:02:22;;;;;;;8.77;8.17;;;20.40;99.90;;;;;;5094135;28;20196;-53
2023/06/19 02:04:49;;;;;;;9.07;8.47;;;20.40;99.90;;;;;;5093277;28;20213;-53
2023/06/19 02:07:16;;;;;;;8.67;8.07;;;20.30;99.90;;;;;;5093372;28;20216;-53
2023/06/19 02:09:43;;;;;;;10.30;9.60;;;20.30;99.90;;;;;;5092699;28;20201;-53
2023/06/19 02:12:10;;;;;;;10.03;9.23;;;20.30;99.90;;;;;;5093876;28;20245;-53
2023/06/19 02:14:39;;;;;;;9.97;9.07;;;20.30;99.90;;;;;;5093974;28;20308;-53
2023/06/19 02:17:06;;;;;;;9.83;9.03;;;20.20;99.90;;;;;;5094042;28;20254;-53
2023/06/19 02:19:33;;;;;;;9.23;8.53;;;20.20;99.90;;;;;;5091822;28;20754;-53
2023/06/19 02:22:00;;;;;;;8.77;8.00;;;20.20;99.90;;;;;;5092327;28;20204;-53
2023/06/19 02:24:27;;;;;;;9.50;8.70;;;20.10;99.90;;;;;;5093547;28;20224;-53
2023/06/19 02:26:54;;;;;;;9.53;8.80;;;20.10;99.90;;;;;;5092447;28;20212;-53
2023/06/19 02:29:21;;;;;;;9.03;8.43;;;20.00;99.90;;;;;;5092811;28;20200;-53
2023/06/19 02:31:49;;;;;;;8.60;8.00;;;20.00;99.90;;;;;;5093392;28;20213;-53
2023/06/19 02:34:16;;;;;;;9.37;8.70;;;20.10;99.90;;;;;;5091236;28;20277;-54
2023/06/19 02:36:43;;;;;;;9.97;9.17;;;20.10;99.90;;;;;;5093665;28;20246;-53
2023/06/19 02:39:10;;;;;;;10.53;9.73;;;20.10;99.90;;;;;;5093521;28;20197;-53
2023/06/19 02:41:38;;;;;;;10.23;9.33;;;20.10;99.90;;;;;;5091892;28;20204;-53
2023/06/19 02:44:05;;;;;;;11.23;10.27;;;20.10;99.90;;;;;;5092690;28;20217;-53
2023/06/19 02:46:32;;;;;;;11.90;10.97;;;20.00;99.90;;;;;;5091508;28;20737;-53
2023/06/19 02:49:01;;;;;;;10.47;9.67;;;20.00;99.90;;;;;;5093178;28;20688;-53
2023/06/19 02:51:28;;;;;;;10.13;9.50;;;20.00;99.90;;;;;;5093352;28;20207;-53
2023/06/19 02:53:55;;;;;;;11.00;10.20;;;19.90;99.90;;;;;;5092888;28;20583;-53
2023/06/19 02:56:22;;;;;;;10.90;9.93;;;19.80;99.90;;;;;;5091945;28;20189;-53
2023/06/19 02:58:49;;;;;;;11.67;10.50;;;19.70;99.90;;;;;;5090279;28;20249;-53
2023/06/19 03:01:16;;;;;;;9.47;8.87;;;19.60;99.90;;;;;;5092956;28;20673;-53
2023/06/19 03:03:42;;;;;;;10.93;10.00;;;19.50;99.90;;;;;;5092832;28;20301;-53
2023/06/19 03:06:11;;;;;;;8.93;8.40;;;19.50;99.90;;;;;;5093066;28;20246;-53
2023/06/19 03:08:38;;;;;;;9.90;9.30;;;19.50;99.90;;;;;;5090977;28;20577;-53
2023/06/19 03:11:05;;;;;;;10.03;9.37;;;19.40;99.90;;;;;;5092485;28;20200;-53
2023/06/19 03:13:46;;;;;;;11.23;9.50;;;19.40;99.90;;;;;;5092407;28;20212;-53
2023/06/19 03:16:14;;;;;;;11.57;10.57;;;19.30;99.90;;;;;;5092737;28;20287;-53
2023/06/19 03:18:41;;;;;;;11.13;10.17;;;19.30;99.90;;;;;;5092714;28;20204;-53
2023/06/19 03:21:08;;;;;;;10.07;9.37;;;19.40;99.90;;;;;;5090224;28;20200;-53
2023/06/19 03:23:36;;;;;;;10.87;9.77;;;19.50;99.90;;;;;;5091617;28;20220;-53
2023/06/19 03:26:03;;;;;;;9.47;8.57;;;19.60;99.90;;;;;;5092616;28;20197;-53
2023/06/19 03:28:30;;;;;;;8.93;8.23;;;19.80;99.90;;;;;;5092506;28;20693;-53
2023/06/19 03:30:58;;;;;;;8.00;7.47;;;20.10;99.90;;;;;;5092525;28;20261;-53
2023/06/19 03:33:25;;;;;;;9.33;8.57;;;20.20;99.90;;;;;;5090063;28;20220;-53
2023/06/19 03:35:52;;;;;;;8.53;7.80;;;20.30;99.90;;;;;;5092223;28;20281;-53
2023/06/19 03:38:19;;;;;;;8.97;8.37;;;20.50;99.90;;;;;;5091451;28;20244;-53
2023/06/19 03:40:47;;;;;;;8.20;7.57;;;20.50;99.90;;;;;;5092467;28;20246;-53
2023/06/19 03:43:14;;;;;;;8.00;7.13;;;20.70;99.90;;;;;;5092052;28;20230;-53
2023/06/19 03:45:41;;;;;;;7.40;6.90;;;20.80;99.90;;;;;;5090679;28;20205;-53
2023/06/19 03:48:08;;;;;;;7.50;7.00;;;21.00;99.90;;;;;;5083788;28;20273;-53
2023/06/19 03:50:35;;;;;;;6.30;5.93;;;21.10;99.90;;;;;;5092061;28;20209;-53
2023/06/19 03:53:02;;;;;;;7.70;7.00;;;21.30;99.90;;;;;;5090693;28;20268;-53
2023/06/19 03:55:29;;;;;;;6.60;6.20;;;21.30;99.90;;;;;;5091841;28;20262;-53
2023/06/19 03:57:57;;;;;;;7.13;6.63;;;21.30;99.90;;;;;;5089956;28;20193;-53
2023/06/19 04:00:24;;;;;;;9.53;8.63;;;21.20;99.90;;;;;;5090999;28;20197;-53
2023/06/19 04:02:51;;;;;;;10.10;9.40;;;21.30;99.90;;;;;;5091591;28;20246;-53
2023/06/19 04:05:19;;;;;;;8.77;8.13;;;21.20;99.90;;;;;;5090776;28;20220;-53
2023/06/19 04:07:46;;;;;;;9.27;8.67;;;21.10;99.90;;;;;;5091655;28;20585;-53
2023/06/19 04:10:13;;;;;;;10.33;9.53;;;20.80;99.90;;;;;;5089904;28;20200;-53
2023/06/19 04:12:41;;;;;;;10.60;9.80;;;20.60;99.90;;;;;;5091797;28;20245;-53
2023/06/19 04:15:10;;;;;;;11.47;10.33;;;20.60;99.90;;;;;;5091659;28;20224;-53
2023/06/19 04:17:37;;;;;;;9.47;8.87;;;20.60;99.90;;;;;;5091834;28;20258;-53
2023/06/19 04:20:10;;;;;;;9.90;9.07;;;20.50;99.90;;;;;;5088267;28;20279;-53
2023/06/19 04:22:37;;;;;;;11.00;10.10;;;20.50;99.90;;;;;;5089436;28;20210;-53
2023/06/19 04:25:05;;;;;;;10.50;9.67;;;20.50;99.90;;;;;;5091203;28;20254;-53
2023/06/19 04:27:32;;;;;;;9.60;8.77;;;20.40;99.90;;;;;;5091664;28;20300;-53
2023/06/19 04:29:59;;;;;;;8.73;8.13;;;20.50;99.90;;;;;;5091835;28;20670;-53
2023/06/19 04:32:28;;;;;;;10.47;9.67;;;20.50;99.90;;;;;;5091667;28;20234;-53
2023/06/19 04:34:55;;;;;;;9.87;9.20;;;20.50;99.90;;;;;;5090644;28;20212;-53
2023/06/19 04:37:24;;;;;;;9.10;8.40;;;20.50;99.90;;;;;;5089941;28;20794;-53
2023/06/19 04:39:51;;;;;;;10.07;9.27;;;20.60;99.90;;;;;;5092509;28;20195;-53
2023/06/19 04:42:21;;;;;;;10.27;9.40;;;20.70;99.90;;;;;;5089733;28;20200;-53
2023/06/19 04:44:48;;;;;;;9.27;8.77;;;20.80;99.90;;;;;;5091049;28;20212;-53
2023/06/19 04:47:17;;;;;;;9.70;9.00;;;20.80;99.90;;;;;;5090208;28;20262;-53
2023/06/19 04:49:45;;;;;;;9.60;8.87;;;20.80;99.90;;;;;;5089556;28;20270;-53
2023/06/19 04:52:12;;;;;;;8.97;8.37;;;20.80;99.90;;;;;;5091291;28;20638;-53
2023/06/19 04:54:39;;;;;;;9.70;9.00;;;20.90;99.90;;;;;;5091281;28;20232;-52
2023/06/19 04:57:07;;;;;;;10.87;9.93;;;21.00;99.90;;;;;;5091030;28;20197;-53
2023/06/19 04:59:34;;;;;;;8.97;8.27;;;21.10;99.90;;;;;;5095751;22;20231;-59
2023/06/19 05:02:01;;;;;;;10.03;9.23;;;21.10;99.90;;;;;;5070468;28;20197;-59
2023/06/19 05:04:32;;;;;;;9.10;8.50;;;21.10;99.90;;;;;;5070456;28;20193;-59
2023/06/19 05:07:00;;;;;;;10.47;9.77;;;21.20;99.90;;;;;;5074235;28;20278;-59
2023/06/19 05:09:27;;;;;;;8.33;7.93;;;21.30;99.90;;;;;;5074299;28;20292;-59
2023/06/19 05:11:54;;;;;;;9.07;8.47;;;21.50;99.90;;;;;;5074370;28;20270;-59
2023/06/19 05:14:21;;;;;;;9.00;8.30;;;21.70;99.90;;;;;;5063072;28;20239;-59
2023/06/19 05:16:48;;;;;;;9.67;8.97;;;21.80;99.90;;;;;;5051699;28;20202;-60
2023/06/19 05:19:15;;;;;;;10.37;9.53;;;22.10;99.90;;;;;;5053855;28;20217;-59
2023/06/19 05:21:42;;;;;;;9.60;8.80;;;22.70;99.90;;;;;;5054152;28;20268;-59
2023/06/19 05:24:10;;;;;;;7.93;7.37;;;23.20;99.90;;;;;;5053694;28;20672;-59
2023/06/19 05:26:37;;;;;;;9.07;8.37;;;23.60;99.90;;;;;;5054021;28;20267;-59
2023/06/19 05:29:08;;;;;;;8.50;8.00;;;24.40;99.90;;;;;;5053800;28;20222;-60
2023/06/19 05:31:35;;;;;;;8.40;7.73;;;24.80;99.90;;;;;;5053171;28;20210;-60
2023/06/19 05:34:02;;;;;;;8.50;7.73;;;24.70;99.90;;;;;;5053190;28;20608;-60
2023/06/19 05:36:29;;;;;;;7.67;7.27;;;24.70;99.90;;;;;;5072239;28;20254;-60
2023/06/19 05:38:55;;;;;;;7.97;7.40;;;24.50;99.90;;;;;;5073885;28;20225;-59
2023/06/19 05:41:24;;;;;;;9.03;8.33;;;24.30;99.90;;;;;;5073913;28;20251;-59
2023/06/19 05:43:51;;;;;;;7.67;7.23;;;23.90;99.90;;;;;;5073600;28;20201;-60
2023/06/19 05:46:18;;;;;;;9.00;8.40;;;23.70;99.90;;;;;;5060762;28;20202;-60
2023/06/19 05:48:45;;;;;;;10.80;9.90;;;23.50;99.90;;;;;;5047312;28;20315;-59
2023/06/19 05:51:12;;;;;;;9.33;8.53;;;23.40;99.90;;;;;;5053036;28;20614;-59
2023/06/19 05:53:40;;;;;;;8.13;7.63;;;23.20;99.90;;;;;;5053181;28;20201;-58
2023/06/19 05:56:07;;;;;;;9.47;8.87;;;22.90;99.90;;;;;;5053325;28;20202;-59
2023/06/19 05:58:35;;;;;;;6.37;5.80;;;22.60;99.90;;;;;;5053389;28;20291;-59
2023/06/19 06:01:02;;;;;;;5.60;5.30;;;22.40;99.90;;;;;;5053476;28;20233;-59
2023/06/19 06:03:30;;;;;;;6.00;5.70;;;22.40;99.90;;;;;;5053068;28;20296;-59
2023/06/19 06:06:02;;;;;;;6.00;5.60;;;22.40;99.90;;;;;;5052482;28;20285;-59
2023/06/19 06:08:29;;;;;;;8.10;7.60;;;22.40;99.90;;;;;;5044582;28;20245;-59
2023/06/19 06:10:56;;;;;;;9.47;8.13;;;22.40;99.90;;;;;;5054091;28;20583;-59
2023/06/19 06:13:23;;;;;;;9.13;8.33;;;22.50;99.90;;;;;;5051109;28;20206;-59
2023/06/19 06:15:52;;;;;;;9.60;8.83;;;22.50;99.90;;;;;;5054168;28;20198;-59
2023/06/19 06:18:19;;;;;;;9.10;8.37;;;22.70;99.90;;;;;;5053016;28;20277;-59
2023/06/19 06:20:46;;;;;;;9.27;8.67;;;22.70;99.90;;;;;;5049316;28;20198;-58
2023/06/19 06:23:12;;;;;;;11.87;10.97;;;22.60;99.90;;;;;;5050763;28;20202;-59
2023/06/19 06:25:39;;;;;;;10.13;9.33;;;22.70;99.90;;;;;;5049695;28;20198;-58
2023/06/19 06:28:07;;;;;;;9.63;8.90;;;22.70;99.90;;;;;;5048702;28;20217;-59
2023/06/19 06:30:34;;;;;;;10.33;8.50;;;22.60;99.90;;;;;;5056980;28;20641;-59
2023/06/19 06:33:02;;;;;;;8.43;7.87;;;22.70;99.90;;;;;;5052158;28;20205;-58
2023/06/19 06:35:29;;;;;;;10.00;9.20;;;22.80;99.90;;;;;;5052178;28;20201;-59
2023/06/19 06:37:56;;;;;;;9.33;8.73;;;22.80;99.90;;;;;;5051979;28;20218;-59
2023/06/19 06:40:23;;;;;;;9.90;9.20;;;22.90;99.90;;;;;;5048995;28;20202;-59
2023/06/19 06:42:50;;;;;;;11.10;8.93;;;23.00;99.90;;;;;;5050950;28;20198;-59
2023/06/19 06:45:17;;;;;;;9.13;8.37;;;23.20;99.90;;;;;;5051498;28;20279;-59
2023/06/19 06:47:44;;;;;;;8.03;7.53;;;23.60;99.90;;;;;;5049481;28;20249;-59
2023/06/19 06:50:12;;;;;;;9.07;8.57;;;24.10;99.90;;;;;;5052555;28;20263;-58
2023/06/19 06:52:39;;;;;;;9.37;8.77;;;24.30;99.90;;;;;;5052785;28;20201;-59
2023/06/19 06:55:07;;;;;;;8.70;8.10;;;24.30;99.90;;;;;;5052285;28;20232;-59
2023/06/19 06:57:33;;;;;;;8.23;7.43;;;24.20;99.90;;;;;;5037670;28;20252;-58
2023/06/19 07:00:00;;;;;;;8.30;7.60;;;24.80;99.90;;;;;;5032323;28;20252;-59
2023/06/19 07:02:28;;;;;;;8.07;7.40;;;25.90;99.90;;;;;;5045913;28;20194;-60
2023/06/19 07:04:56;;;;;;;7.60;7.10;;;27.00;99.90;;;;;;5052618;28;20263;-59
2023/06/19 07:07:24;;;;;;;7.83;7.23;;;28.40;99.90;;;;;;5053528;28;20627;-59
2023/06/19 07:09:51;;;;;;;6.47;6.05;;;29.40;99.90;;;;;;5051934;28;20738;-59
2023/06/19 07:12:18;;;;;;;7.93;7.45;;;29.90;99.90;;;;;;5050629;28;20194;-59
2023/06/19 07:14:45;;;;;;;7.30;6.95;;;30.70;99.90;;;;;;5050731;28;20202;-58
2023/06/19 07:17:12;;;;;;;7.43;6.85;;;31.50;99.90;;;;;;5052077;28;20215;-59
2023/06/19 07:19:39;;;;;;;7.38;6.88;;;31.90;99.90;;;;;;5052440;28;20266;-60
2023/06/19 07:22:06;;;;;;;7.38;6.85;;;31.90;99.90;;;;;;5051794;28;20237;-61
2023/06/19 07:24:35;;;;;;;6.43;6.13;;;32.70;99.90;;;;;;5052344;28;20206;-60
2023/06/19 07:27:02;;;;;;;6.25;5.85;;;33.20;99.90;;;;;;5051675;28;20206;-60
2023/06/19 07:29:28;;;;;;;7.30;6.80;;;33.60;99.90;;;;;;5050817;28;20221;-60
2023/06/19 07:31:55;;;;;;;5.93;5.63;;;32.80;99.90;;;;;;5049709;28;20225;-60
2023/06/19 07:34:22;;;;;;;6.13;5.82;;;32.30;99.90;;;;;;5049219;28;20255;-59
2023/06/19 07:36:50;;;;;;;5.35;5.15;;;32.90;98.70;;;;;;5046705;28;20197;-60
2023/06/19 07:39:17;;;;;;;6.05;5.68;;;33.20;98.40;;;;;;5048166;28;20229;-59
2023/06/19 07:41:45;;;;;;;5.32;5.00;;;34.10;95.30;;;;;;5048737;28;20559;-60
2023/06/19 07:44:12;;;;;;;4.32;4.15;;;34.20;96.50;;;;;;5046709;28;20209;-59
2023/06/19 07:46:39;;;;;;;4.75;4.43;;;33.70;92.90;;;;;;5050174;28;20202;-60
2023/06/19 07:49:06;;;;;;;4.60;4.40;;;34.10;92.80;;;;;;5047379;28;20314;-60
2023/06/19 07:51:33;;;;;;;4.70;4.40;;;34.70;91.10;;;;;;5048696;28;20311;-60
2023/06/19 07:54:00;;;;;;;5.32;5.13;;;35.30;90.10;;;;;;5049039;28;20198;-60
2023/06/19 07:56:27;;;;;;;4.75;4.63;;;35.50;88.00;;;;;;5050566;28;20629;-60
2023/06/19 07:58:55;;;;;;;5.40;5.20;;;35.10;88.70;;;;;;5048997;28;20279;-60
2023/06/19 08:01:23;;;;;;;4.55;4.35;;;33.60;90.20;;;;;;5049050;28;20691;-59
2023/06/19 08:03:49;;;;;;;4.72;4.63;;;32.40;91.00;;;;;;5047033;28;20208;-60
2023/06/19 08:06:16;;;;;;;5.28;5.07;;;31.60;91.80;;;;;;5047778;28;20610;-59
2023/06/19 08:08:43;;;;;;;5.88;5.47;;;29.60;94.40;;;;;;5048396;28;20272;-60
2023/06/19 08:11:10;;;;;;;5.78;5.47;;;29.30;96.20;;;;;;5048615;28;20698;-59
2023/06/19 08:13:37;;;;;;;5.20;4.70;;;28.80;98.10;;;;;;5050961;28;20252;-60
2023/06/19 08:16:06;;;;;;;6.55;6.22;;;28.70;99.20;;;;;;5050449;28;20633;-60
2023/06/19 08:18:33;;;;;;;6.40;5.40;;;28.40;99.90;;;;;;5048996;28;20235;-59
2023/06/19 08:21:00;;;;;;;4.85;4.65;;;28.70;99.90;;;;;;5049284;28;20547;-60
2023/06/19 08:23:27;;;;;;;5.20;5.00;;;29.40;99.50;;;;;;5049114;28;20202;-59
2023/06/19 08:25:54;;;;;;;5.40;5.10;;;29.70;97.70;;;;;;5047009;28;20198;-59
2023/06/19 08:28:21;;;;;;;6.25;5.97;;;30.30;98.60;;;;;;5049676;28;20683;-59
2023/06/19 08:30:48;;;;;;;6.15;5.85;;;30.70;97.70;;;;;;5046407;28;20197;-59
2023/06/19 08:33:16;;;;;;;6.13;5.78;;;30.70;98.40;;;;;;5049866;28;20606;-60
2023/06/19 08:35:44;;;;;;;5.57;5.20;;;31.10;99.00;;;;;;5049799;28;20614;-60
2023/06/19 08:38:11;;;;;;;5.82;5.55;;;31.20;97.90;;;;;;5047759;28;20214;-60
2023/06/19 08:40:38;;;;;;;5.30;5.00;;;30.60;97.00;;;;;;5049378;28;20297;-60
2023/06/19 08:43:05;;;;;;;4.68;4.57;;;29.80;99.20;;;;;;5053308;28;20201;-60
2023/06/19 08:45:32;;;;;;;5.78;5.07;;;29.50;99.70;;;;;;5051272;28;20259;-60
2023/06/19 08:47:59;;;;;;;5.32;5.13;;;29.80;99.90;;;;;;5052934;28;20220;-60
2023/06/19 08:50:28;;;;;;;6.03;5.60;;;30.50;99.90;;;;;;5053549;28;20220;-59
2023/06/19 08:52:56;;;;;;;8.40;6.20;;;30.90;99.90;;;;;;5054454;28;20663;-60
2023/06/19 08:55:23;;;;;;;4.95;4.85;;;31.20;98.30;;;;;;5052414;28;20198;-60
2023/06/19 08:57:51;;;;;;;5.80;5.53;;;32.10;99.10;;;;;;5050384;28;20275;-60
2023/06/19 09:00:25;;;;;;;6.07;5.65;;;32.60;96.60;;;;;;5053627;28;20202;-60
2023/06/19 09:02:52;;;;;;;6.18;5.93;;;32.50;97.90;;;;;;5054176;28;20668;-60
2023/06/19 09:05:20;;;;;;;6.68;6.28;;;32.50;94.80;;;;;;5054578;28;20202;-60
2023/06/19 09:07:56;;;;;;;6.68;6.28;;;32.90;95.80;;;;;;5054414;28;20209;-60
2023/06/19 09:10:24;;;;;;;5.40;5.20;;;33.40;95.70;;;;;;5052630;28;20683;-60
2023/06/19 09:12:59;;;;;;;6.70;6.32;;;32.90;95.80;;;;;;5047288;28;20208;-60
2023/06/19 09:15:29;;;;;;;6.03;5.63;;;33.20;93.80;;;;;;5047598;28;20197;-60
2023/06/19 09:18:04;;;;;;;5.88;5.68;;;33.30;95.00;;;;;;5047065;28;20691;-59
2023/06/19 09:20:32;;;;;;;5.55;5.35;;;32.40;93.20;;;;;;5054270;28;20629;-60
2023/06/19 09:23:00;;;;;;;6.10;5.80;;;33.30;93.60;;;;;;5052828;28;20440;-70
2023/06/19 09:25:28;;;;;;;6.70;6.25;;;33.70;93.80;;;;;;5054204;28;20288;-68
2023/06/19 09:27:55;;;;;;;5.30;5.20;;;34.40;91.80;;;;;;5054027;28;20312;-70
2023/06/19 09:30:22;;;;;;;6.07;5.63;;;35.00;90.50;;;;;;5053050;28;20213;-69
2023/06/19 09:32:49;;;;;;;5.85;5.55;;;35.40;89.70;;;;;;5053719;28;20827;-68
2023/06/19 09:35:17;;;;;;;5.15;4.90;;;35.50;87.30;;;;;;5053741;28;20260;-68
2023/06/19 09:37:46;;;;;;;4.75;4.55;;;35.70;86.70;;;;;;5053667;28;20205;-68
2023/06/19 09:40:14;;;;;;;5.00;4.70;;;35.70;84.90;;;;;;5054016;28;20248;-68
2023/06/19 09:42:43;;;;;;;4.88;4.78;;;35.80;90.00;;;;;;5053699;28;20206;-67
2023/06/19 09:45:14;;;;;;;4.80;4.70;;;35.40;85.10;;;;;;5053825;28;20201;-66
2023/06/19 09:47:44;;;;;;;4.25;4.15;;;35.00;88.80;;;;;;5060601;28;20248;-67
2023/06/19 09:50:14;;;;;;;3.88;3.78;;;34.80;87.60;;;;;;5053003;28;20218;-68
2023/06/19 09:52:42;;;;;;;4.53;4.32;;;34.20;86.20;;;;;;5052656;28;20201;-66
2023/06/19 09:55:13;;;;;;;4.43;4.30;;;34.00;87.40;;;;;;5053207;28;20209;-65
2023/06/19 09:57:42;;;;;;;5.03;4.55;;;33.30;91.20;;;;;;5052974;28;20241;-65
2023/06/19 10:00:12;;;;;;;4.15;3.85;;;32.70;89.70;;;;;;5051841;28;20617;-66
2023/06/19 10:02:41;;;;;;;4.60;4.50;;;32.20;91.60;;;;;;5052072;28;20202;-64
2023/06/19 10:05:13;;;;;;;4.53;4.43;;;31.70;93.10;;;;;;5046058;28;20307;-62
2023/06/19 10:07:43;;;;;;;4.75;4.55;;;31.30;94.20;;;;;;5052979;28;20271;-62
2023/06/19 10:10:12;;;;;;;6.13;5.72;;;30.50;95.90;;;;;;5058077;28;20276;-64
2023/06/19 10:12:43;;;;;;;5.45;5.25;;;30.00;96.70;;;;;;5062097;28;20275;-62
2023/06/19 10:15:17;;;;;;;6.57;6.28;;;29.70;98.10;;;;;;5052981;28;20202;-62
2023/06/19 10:17:49;;;;;;;5.68;5.38;;;29.80;98.60;;;;;;5050050;28;20282;-62
2023/06/19 10:20:24;;;;;;;6.88;6.30;;;29.60;98.40;;;;;;5051966;28;20251;-64
2023/06/19 10:22:53;;;;;;;6.45;6.07;;;29.40;97.50;;;;;;5050467;28;20236;-62
2023/06/19 10:25:23;;;;;;;5.95;5.72;;;29.30;98.80;;;;;;5046321;28;20202;-62
2023/06/19 10:27:52;;;;;;;6.35;6.05;;;29.30;99.20;;;;;;5050264;28;20224;-64
2023/06/19 10:30:20;;;;;;;8.00;7.40;;;29.20;99.30;;;;;;5052719;28;20250;-64
2023/06/19 10:32:47;;;;;;;7.63;7.25;;;28.90;99.90;;;;;;5052497;28;20263;-63
2023/06/19 10:35:16;;;;;;;6.85;6.45;;;29.10;99.90;;;;;;5052233;28;20255;-58
2023/06/19 10:37:43;;;;;;;7.03;6.38;;;29.30;99.90;;;;;;5050765;28;20306;-58
2023/06/19 10:40:12;;;;;;;7.28;6.93;;;29.50;99.90;;;;;;5051371;28;20197;-57
2023/06/19 10:42:40;;;;;;;6.65;6.35;;;29.70;99.60;;;;;;5051361;28;20251;-58
2023/06/19 10:45:10;;;;;;;6.85;6.45;;;30.70;99.90;;;;;;5050796;28;20276;-59
2023/06/19 10:47:39;;;;;;;6.85;6.45;;;31.10;98.50;;;;;;5050077;28;20254;-61
2023/06/19 10:50:10;;;;;;;6.13;5.70;;;30.80;99.30;;;;;;5051287;28;20287;-61
2023/06/19 10:52:37;;;;;;;7.03;6.63;;;30.60;98.40;;;;;;5050320;28;20689;-63
2023/06/19 10:55:05;;;;;;;6.25;5.95;;;30.50;97.10;;;;;;5049990;28;20243;-66
2023/06/19 10:57:33;;;;;;;5.50;5.20;;;30.40;96.30;;;;;;5050637;28;20281;-63
2023/06/19 11:00:00;;;;;;;5.43;5.07;;;30.10;96.60;;;;;;5051660;28;20707;-63
2023/06/19 11:02:28;;;;;;;4.82;4.72;;;30.20;96.70;;;;;;5050612;28;20622;-64
2023/06/19 11:04:56;;;;;;;5.28;5.07;;;30.10;96.80;;;;;;5050386;28;20264;-65
2023/06/19 11:07:26;;;;;;;4.47;4.28;;;29.90;98.30;;;;;;5050165;28;20614;-58
2023/06/19 11:09:53;;;;;;;4.80;4.60;;;29.80;98.50;;;;;;5050694;28;20713;-57
2023/06/19 11:12:21;;;;;;;5.57;5.32;;;29.90;98.60;;;;;;5051003;28;20202;-66
2023/06/19 11:14:49;;;;;;;4.72;4.40;;;30.00;96.80;;;;;;5088581;22;20319;-56
2023/06/19 11:17:18;;;;;;;4.28;4.03;;;30.00;96.20;;;;;;5070809;28;20617;-57
2023/06/19 11:19:46;;;;;;;4.90;4.65;;;29.90;96.60;;;;;;5070946;28;20197;-56
2023/06/19 11:22:13;;;;;;;4.80;4.50;;;30.00;97.00;;;;;;5071802;28;20197;-57
2023/06/19 11:24:45;;;;;;;4.90;4.60;;;30.00;96.80;;;;;;5071574;28;20221;-57
2023/06/19 11:27:18;;;;;;;4.75;4.60;;;30.00;98.00;;;;;;5070638;28;20197;-57
2023/06/19 11:29:46;;;;;;;4.78;4.57;;;29.60;98.10;;;;;;5070081;28;20247;-58
2023/06/19 11:32:15;;;;;;;4.68;4.57;;;29.60;97.30;;;;;;5071361;28;20284;-57
2023/06/19 11:34:44;;;;;;;4.35;4.25;;;29.40;96.40;;;;;;5070040;28;20213;-59
2023/06/19 11:37:17;;;;;;;5.20;4.80;;;29.20;96.20;;;;;;5063981;28;20255;-57
2023/06/19 11:39:45;;;;;;;4.07;3.95;;;29.30;96.60;;;;;;5068386;28;20197;-64
2023/06/19 11:42:12;;;;;;;3.60;3.47;;;29.00;98.00;;;;;;5071339;28;20345;-56
2023/06/19 11:44:54;;;;;;;3.92;3.67;;;28.80;98.00;;;;;;5067409;28;20221;-59
2023/06/19 11:47:24;;;;;;;2.92;2.92;;;29.10;97.20;;;;;;5070136;28;20205;-60
2023/06/19 11:49:52;;;;;;;3.40;3.30;;;29.40;96.30;;;;;;5071782;28;20274;-61
2023/06/19 11:52:22;;;;;;;3.30;3.10;;;29.50;96.70;;;;;;5070287;28;20193;-56
2023/06/19 11:54:49;;;;;;;3.50;3.40;;;29.20;96.00;;;;;;5071127;28;20563;-58
2023/06/19 11:57:19;;;;;;;3.05;3.00;;;29.10;96.90;;;;;;5071157;28;20247;-59
2023/06/19 11:59:46;;;;;;;3.08;2.97;;;29.20;96.00;;;;;;5068006;28;20193;-59
2023/06/19 12:02:13;;;;;;;3.83;2.83;;;29.20;95.40;;;;;;5069720;28;20197;-60
2023/06/19 12:04:40;;;;;;;2.83;2.72;;;29.10;94.80;;;;;;5069963;28;20249;-58
2023/06/19 12:07:07;;;;;;;3.05;2.80;;;29.20;96.00;;;;;;5067344;28;20342;-57
2023/06/19 12:09:37;;;;;;;2.58;2.58;;;29.20;94.60;;;;;;5069776;28;20255;-58
2023/06/19 12:12:05;;;;;;;4.22;3.92;;;29.20;95.90;;;;;;5069651;28;20193;-59
2023/06/19 12:14:31;;;;;;;2.90;2.80;;;29.20;93.80;;;;;;5069536;28;20228;-61
2023/06/19 12:16:59;;;;;;;3.65;3.55;;;29.20;95.70;;;;;;5071239;28;20201;-57
2023/06/19 12:19:27;;;;;;;2.55;2.55;;;29.20;94.00;;;;;;5070938;28;20270;-60
2023/06/19 12:21:54;;;;;;;3.22;3.03;;;29.00;94.40;;;;;;5070331;28;20201;-59
2023/06/19 12:24:21;;;;;;;3.13;3.03;;;29.00;95.20;;;;;;5071473;28;20217;-61
2023/06/19 12:26:50;;;;;;;3.28;3.17;;;28.90;93.90;;;;;;5071296;28;20259;-64
2023/06/19 12:29:16;;;;;;;3.10;3.05;;;28.80;94.00;;;;;;5071349;28;20639;-58
2023/06/19 12:31:44;;;;;;;4.38;4.18;;;28.70;93.80;;;;;;5071406;28;20205;-59
2023/06/19 12:34:11;;;;;;;3.40;3.28;;;28.80;95.10;;;;;;5071323;28;20229;-63
2023/06/19 12:36:38;;;;;;;3.35;3.25;;;29.00;93.50;;;;;;5070599;28;20213;-60
2023/06/19 12:39:14;;;;;;;3.60;3.50;;;29.10;93.60;;;;;;5071109;28;20613;-59
2023/06/19 12:41:41;;;;;;;4.13;4.03;;;29.20;95.20;;;;;;5071449;28;20209;-58
2023/06/19 12:44:09;;;;;;;4.22;3.92;;;29.20;94.70;;;;;;5071100;28;20711;-59
2023/06/19 12:46:36;;;;;;;4.72;4.43;;;29.20;95.40;;;;;;5071333;28;20211;-59
2023/06/19 12:49:03;;;;;;;5.00;4.65;;;29.20;93.60;;;;;;5070748;28;20632;-61